OICS

Details ICAO OICS (SDG)
Name SANANDAJ
Region Iran
Timezone Asia/Tehran (UTC+4.5)
Plans Departing 3
Arriving 8
Stats Elevation 4,522 ft / 1,378 m (AMSL)
Location 35.245855° 47.009246°
Runways 1
Magnetic Variation 4.908° E
Sunrise 2018-05-25 01:43:07 UTC / 2018-05-25 06:13:07 Local
Sunset 2018-05-25 15:57:32 UTC / 2018-05-25 20:27:32 Local
Advertisement - Login to hide

Runways

ID Width Length Bearing (true) Bearing (mag) Surface Threshold Offset Overrun Length
01 148 ft / 45 m 8,679 ft / 2,645 m 18.12° 13.21° Asphalt 0 ft / 0 m 0 ft / 0 m
19 148 ft / 45 m 8,679 ft / 2,645 m 198.12° 193.21° Asphalt 0 ft / 0 m 345 ft / 105 m

Map

Weather


0- 5 10 15 20 25 30 35+ Temperature / ° C

Clouds and Precipitation
Forecast for 2018-05-25 12:00 UTC. Updated 2 hours ago

Ground ~20,000 ft ~40,000 ft Winds

METAR

OICS 251300Z 35006KT 7000 FEW035CB SCT040 25/09 Q1012

TAF

Not found

Frequencies

Recorded 128.45 MHz INFO
Tower 122.90 MHz TWR
Tower 121.90 MHz TWR
Warning: Do not use this data for real-world aviation or navigation. No guarantee of current accuracy is given.